Time;durP1;ratioP1;P1;durP2;ratioP2;P2;SDS_P1;SDS_P2;PMS_P1;PMS_P2;Temp;Humidity;BMP_temperature;BMP_pressure;BME280_temperature;BME280_humidity;BME280_pressure;Samples;Min_cycle;Max_cycle;Signal;HPM_P1;HPM_P2
2022/09/11 00:01:53;;;;;;;4.53;0.70;;;14.90;76.10;;;;;;4995909;28;20022;-74
2022/09/11 00:04:18;;;;;;;2.45;0.52;;;14.80;75.90;;;;;;4995550;28;20053;-74
2022/09/11 00:06:44;;;;;;;3.85;0.63;;;14.80;76.00;;;;;;4979505;28;20030;-74
2022/09/11 00:09:09;;;;;;;2.08;0.50;;;14.80;75.60;;;;;;4995594;28;20553;-74
2022/09/11 00:11:41;;;;;;;2.33;0.77;;;14.80;75.90;;;;;;4995449;28;20050;-77
2022/09/11 00:14:09;;;;;;;2.55;0.70;;;14.80;76.30;;;;;;4995788;28;20037;-76
2022/09/11 00:16:38;;;;;;;2.75;0.70;;;14.80;75.60;;;;;;4995555;28;20041;-76
2022/09/11 00:19:16;;;;;;;4.43;0.65;;;14.70;76.20;;;;;;4995255;28;20030;-76
2022/09/11 00:21:42;;;;;;;10.27;0.80;;;14.70;76.20;;;;;;4995859;28;20030;-76
2022/09/11 00:24:08;;;;;;;1.50;0.60;;;14.80;76.30;;;;;;4995633;28;20023;-76
2022/09/11 00:26:35;;;;;;;3.83;0.70;;;14.70;76.20;;;;;;4995645;28;20035;-76
2022/09/11 00:29:00;;;;;;;1.95;0.77;;;14.80;76.10;;;;;;4995555;28;20026;-76
2022/09/11 00:31:28;;;;;;;2.25;0.70;;;14.80;75.90;;;;;;4995326;28;20033;-76
2022/09/11 00:33:55;;;;;;;4.07;0.55;;;14.70;75.90;;;;;;4995425;28;20033;-77
2022/09/11 00:36:23;;;;;;;3.38;0.70;;;14.70;76.00;;;;;;4994745;28;20034;-76
2022/09/11 00:38:49;;;;;;;3.38;0.70;;;14.70;76.40;;;;;;4995101;28;20032;-76
2022/09/11 00:41:18;;;;;;;3.53;0.68;;;14.80;75.80;;;;;;4995585;28;20023;-76
2022/09/11 00:44:02;;;;;;;1.00;0.45;;;14.70;76.10;;;;;;4995354;28;20027;-76
2022/09/11 00:46:33;;;;;;;3.47;0.75;;;14.80;76.00;;;;;;4995368;28;20376;-76
2022/09/11 00:49:02;;;;;;;1.88;0.50;;;14.80;75.70;;;;;;4994858;28;20023;-75
2022/09/11 00:51:32;;;;;;;4.35;0.90;;;14.70;75.90;;;;;;4994303;28;20030;-76
2022/09/11 00:53:59;;;;;;;1.63;0.40;;;14.80;75.80;;;;;;4994700;28;20443;-75
2022/09/11 00:56:30;;;;;;;4.18;0.52;;;14.80;75.70;;;;;;4994226;28;20491;-77
2022/09/11 00:58:57;;;;;;;3.42;0.90;;;14.80;75.50;;;;;;4994720;28;20053;-76
2022/09/11 01:01:23;;;;;;;3.40;0.70;;;14.80;75.80;;;;;;4994678;28;20128;-76
2022/09/11 01:03:50;;;;;;;2.50;0.60;;;14.70;75.90;;;;;;4994884;28;20352;-77
2022/09/11 01:06:19;;;;;;;3.67;0.98;;;14.70;75.80;;;;;;4995085;28;20030;-76
2022/09/11 01:08:45;;;;;;;5.68;0.88;;;14.70;75.90;;;;;;4994914;28;20022;-77
2022/09/11 01:11:53;;;;;;;3.03;0.70;;;14.70;75.90;;;;;;4994784;28;20030;-76
2022/09/11 01:14:42;;;;;;;2.25;0.80;;;14.70;75.90;;;;;;4989281;28;20100;-75
2022/09/11 01:17:28;;;;;;;4.47;0.93;;;14.80;76.00;;;;;;4974121;28;20042;-76
2022/09/11 01:20:11;;;;;;;3.30;0.47;;;14.80;76.00;;;;;;4994432;28;20030;-76
2022/09/11 01:22:45;;;;;;;1.85;0.47;;;14.80;75.80;;;;;;4994619;28;20025;-76
2022/09/11 01:25:48;;;;;;;2.53;0.60;;;14.80;75.70;;;;;;4994616;28;20118;-76
2022/09/11 01:28:32;;;;;;;2.53;0.57;;;14.80;75.50;;;;;;4994374;28;20117;-76
2022/09/11 01:31:04;;;;;;;2.53;0.68;;;14.80;75.30;;;;;;4994449;28;20026;-76
2022/09/11 01:33:41;;;;;;;4.00;0.90;;;14.80;76.10;;;;;;4994291;28;20026;-76
2022/09/11 01:36:17;;;;;;;3.13;0.77;;;14.80;75.30;;;;;;4993992;28;20037;-76
2022/09/11 01:38:56;;;;;;;2.05;0.60;;;14.90;75.20;;;;;;4994147;28;20402;-76
2022/09/11 01:41:34;;;;;;;6.25;1.10;;;14.80;75.30;;;;;;4994092;28;20475;-76
2022/09/11 01:44:11;;;;;;;2.17;0.90;;;14.80;75.20;;;;;;4994327;28;20026;-76
2022/09/11 01:46:46;;;;;;;2.90;0.70;;;14.80;75.70;;;;;;4994291;28;20471;-76
2022/09/11 01:49:21;;;;;;;2.92;1.00;;;14.90;75.50;;;;;;4996652;28;20435;-77
2022/09/11 01:51:54;;;;;;;1.08;0.60;;;14.80;75.70;;;;;;4994262;28;20129;-76
2022/09/11 01:54:22;;;;;;;3.35;0.80;;;14.80;75.70;;;;;;4993700;28;20034;-77
2022/09/11 01:56:54;;;;;;;7.47;1.33;;;14.80;75.70;;;;;;4994228;28;20117;-77
2022/09/11 01:59:30;;;;;;;2.58;0.80;;;14.80;75.90;;;;;;4978479;28;20029;-76
2022/09/11 02:02:11;;;;;;;3.60;0.55;;;14.80;76.10;;;;;;4992964;28;20098;-77
2022/09/11 02:04:48;;;;;;;3.60;0.98;;;14.70;76.10;;;;;;4993443;28;20113;-76
2022/09/11 02:07:23;;;;;;;3.60;1.33;;;14.60;76.40;;;;;;4993828;28;20080;-77
2022/09/11 02:10:00;;;;;;;3.28;0.77;;;14.70;77.10;;;;;;4993880;28;20057;-76
2022/09/11 02:12:39;;;;;;;4.90;0.82;;;14.70;76.80;;;;;;4977150;28;20061;-76
2022/09/11 02:15:07;;;;;;;2.33;0.80;;;14.70;76.60;;;;;;4993586;28;20110;-76
2022/09/11 02:17:45;;;;;;;3.13;0.90;;;14.70;76.80;;;;;;4993439;28;20088;-77
2022/09/11 02:20:12;;;;;;;1.75;0.50;;;14.70;76.90;;;;;;4993329;28;20053;-76
2022/09/11 02:22:39;;;;;;;3.22;0.90;;;14.70;76.40;;;;;;4993196;28;20027;-76
2022/09/11 02:25:06;;;;;;;3.17;0.75;;;14.70;76.80;;;;;;4993429;28;20474;-76
2022/09/11 02:27:33;;;;;;;2.22;0.85;;;14.70;76.60;;;;;;4994596;28;20482;-76
2022/09/11 02:29:59;;;;;;;4.40;0.60;;;14.60;76.90;;;;;;4993488;28;20423;-76
2022/09/11 02:32:26;;;;;;;1.02;0.47;;;14.60;76.90;;;;;;4993203;28;20034;-76
2022/09/11 02:34:54;;;;;;;2.20;0.88;;;14.70;76.90;;;;;;4992893;28;20022;-76
2022/09/11 02:37:48;;;;;;;5.30;0.80;;;14.70;76.90;;;;;;4992883;28;20066;-76
2022/09/11 02:40:44;;;;;;;1.98;0.93;;;14.70;76.70;;;;;;4993245;28;20097;-76
2022/09/11 02:43:21;;;;;;;5.55;0.80;;;14.70;76.80;;;;;;4992950;28;20037;-76
2022/09/11 02:45:53;;;;;;;1.60;0.80;;;14.70;76.90;;;;;;4992459;28;20066;-76
2022/09/11 02:48:57;;;;;;;4.72;0.90;;;14.70;77.00;;;;;;4993096;28;20113;-76
2022/09/11 02:51:31;;;;;;;1.67;0.90;;;14.70;76.40;;;;;;4956256;28;20035;-76
2022/09/11 02:54:16;;;;;;;2.70;0.73;;;14.70;76.40;;;;;;4972364;28;20074;-76
2022/09/11 02:56:55;;;;;;;2.10;0.60;;;14.80;76.10;;;;;;4972390;28;20093;-76
2022/09/11 02:59:25;;;;;;;3.95;1.13;;;14.80;75.90;;;;;;4956277;28;20031;-77
2022/09/11 03:01:54;;;;;;;1.65;0.63;;;14.80;75.80;;;;;;4940312;28;20050;-76
2022/09/11 03:04:21;;;;;;;2.28;0.90;;;14.90;76.10;;;;;;4955975;28;20019;-76
2022/09/11 03:06:48;;;;;;;6.75;0.75;;;14.90;75.80;;;;;;4940076;28;20042;-76
2022/09/11 03:09:15;;;;;;;5.03;0.80;;;14.90;75.80;;;;;;4956127;28;20125;-76
2022/09/11 03:11:41;;;;;;;4.88;1.02;;;14.90;75.90;;;;;;4956148;28;20073;-76
2022/09/11 03:14:07;;;;;;;4.28;0.82;;;14.90;75.90;;;;;;4955768;28;20034;-76
2022/09/11 03:16:35;;;;;;;0.93;0.50;;;14.80;76.10;;;;;;4956875;28;20638;-76
2022/09/11 03:19:02;;;;;;;2.17;0.70;;;14.80;76.30;;;;;;4957080;28;20062;-76
2022/09/11 03:21:28;;;;;;;2.58;0.75;;;14.80;76.50;;;;;;4960360;28;20033;-76
2022/09/11 03:23:53;;;;;;;2.67;0.68;;;14.80;76.70;;;;;;4992544;28;20390;-77
2022/09/11 03:26:19;;;;;;;3.03;0.60;;;14.70;76.60;;;;;;4992731;28;20034;-76
2022/09/11 03:28:45;;;;;;;4.10;0.77;;;14.80;76.70;;;;;;4992652;28;20030;-76
2022/09/11 03:31:12;;;;;;;2.90;0.90;;;14.80;77.30;;;;;;4992478;28;20497;-76
2022/09/11 03:33:38;;;;;;;2.88;0.80;;;14.80;76.50;;;;;;4992157;28;20025;-76
2022/09/11 03:36:04;;;;;;;3.83;1.27;;;14.80;76.50;;;;;;4992482;28;20038;-77
2022/09/11 03:38:30;;;;;;;3.28;0.80;;;14.70;76.40;;;;;;4992178;28;20053;-77
2022/09/11 03:40:57;;;;;;;2.08;0.70;;;14.70;76.80;;;;;;4992324;28;20442;-77
2022/09/11 03:43:22;;;;;;;2.72;0.70;;;14.70;76.50;;;;;;4992342;28;20463;-76
2022/09/11 03:45:49;;;;;;;1.45;0.65;;;14.80;76.60;;;;;;4991971;28;20046;-77
2022/09/11 03:48:15;;;;;;;2.65;0.70;;;14.80;76.80;;;;;;4992582;28;20037;-76
2022/09/11 03:50:40;;;;;;;3.92;1.20;;;14.80;76.50;;;;;;4992338;28;20027;-76
2022/09/11 03:53:06;;;;;;;2.28;0.60;;;14.80;76.50;;;;;;4992315;28;20019;-76
2022/09/11 03:55:32;;;;;;;1.63;0.73;;;14.70;76.60;;;;;;4992198;28;20030;-76
2022/09/11 03:57:58;;;;;;;3.35;0.45;;;14.70;77.10;;;;;;4992249;28;20117;-77
2022/09/11 04:00:25;;;;;;;4.35;0.90;;;14.70;77.20;;;;;;4992079;28;20023;-76
2022/09/11 04:02:51;;;;;;;2.55;0.80;;;14.70;76.50;;;;;;4993204;28;20031;-76
2022/09/11 04:05:16;;;;;;;2.90;0.80;;;14.80;76.50;;;;;;4991842;28;20046;-76
2022/09/11 04:07:42;;;;;;;1.73;0.65;;;14.80;76.30;;;;;;4992124;28;20486;-76
2022/09/11 04:10:08;;;;;;;2.67;1.13;;;14.80;76.70;;;;;;4992017;28;20129;-76
2022/09/11 04:12:34;;;;;;;3.80;0.90;;;14.80;76.50;;;;;;4993037;28;20045;-76
2022/09/11 04:15:01;;;;;;;3.67;1.00;;;14.80;76.90;;;;;;4992004;28;20117;-76
2022/09/11 04:17:28;;;;;;;0.80;0.80;;;14.90;76.80;;;;;;4995561;28;20069;-77
2022/09/11 04:19:54;;;;;;;2.75;0.93;;;14.80;77.00;;;;;;4996445;28;20034;-76
2022/09/11 04:22:20;;;;;;;3.22;1.00;;;14.80;77.40;;;;;;4992139;28;20113;-76
2022/09/11 04:24:46;;;;;;;2.40;1.00;;;14.80;78.20;;;;;;4991897;28;20018;-76
2022/09/11 04:27:11;;;;;;;3.65;0.90;;;14.70;78.40;;;;;;4995463;28;20080;-76
2022/09/11 04:29:37;;;;;;;3.42;0.80;;;14.70;78.70;;;;;;4995424;28;20121;-76
2022/09/11 04:32:03;;;;;;;2.13;0.60;;;14.70;79.00;;;;;;4995070;28;20058;-76
2022/09/11 04:34:29;;;;;;;3.65;0.95;;;14.70;79.00;;;;;;4995592;28;20125;-76
2022/09/11 04:36:55;;;;;;;4.55;0.80;;;14.80;78.60;;;;;;4994985;28;20475;-76
2022/09/11 04:39:21;;;;;;;2.88;0.40;;;14.70;78.80;;;;;;4995346;28;20069;-76
2022/09/11 04:41:47;;;;;;;2.92;0.95;;;14.80;78.80;;;;;;4994914;28;20053;-76
2022/09/11 04:44:13;;;;;;;2.20;0.77;;;14.80;79.00;;;;;;4996339;28;20566;-76
2022/09/11 04:46:40;;;;;;;2.65;1.00;;;14.80;78.60;;;;;;4994884;28;20057;-76
2022/09/11 04:49:10;;;;;;;1.42;0.80;;;14.90;78.60;;;;;;4994893;28;20096;-77
2022/09/11 04:51:37;;;;;;;4.28;0.98;;;14.90;78.30;;;;;;4995184;28;20121;-76
2022/09/11 04:54:04;;;;;;;2.30;0.68;;;14.80;78.50;;;;;;4995198;28;20033;-76
2022/09/11 04:56:31;;;;;;;3.53;0.98;;;14.80;79.00;;;;;;4995061;28;20034;-76
2022/09/11 04:59:04;;;;;;;2.03;1.33;;;14.80;79.30;;;;;;4994682;28;20097;-76
2022/09/11 05:01:31;;;;;;;4.93;1.00;;;14.80;79.00;;;;;;4995200;28;20022;-77
2022/09/11 05:03:57;;;;;;;6.07;0.98;;;14.80;79.70;;;;;;4995336;28;20027;-77
2022/09/11 05:06:22;;;;;;;2.63;1.00;;;14.70;80.30;;;;;;4995351;28;20025;-78
2022/09/11 05:08:49;;;;;;;3.03;1.10;;;14.70;80.40;;;;;;4995012;28;20445;-77
2022/09/11 05:11:17;;;;;;;3.15;1.00;;;14.70;80.60;;;;;;4994818;28;20022;-76
2022/09/11 05:13:43;;;;;;;3.38;1.10;;;14.80;80.60;;;;;;4994485;28;20040;-76
2022/09/11 05:16:11;;;;;;;3.97;1.00;;;14.70;80.90;;;;;;4994443;28;20065;-77
2022/09/11 05:18:39;;;;;;;2.42;1.02;;;14.70;81.20;;;;;;4994794;28;20077;-76
2022/09/11 05:21:13;;;;;;;4.00;1.23;;;14.70;81.80;;;;;;4994596;28;20031;-77
2022/09/11 05:23:40;;;;;;;1.38;0.93;;;14.70;82.00;;;;;;4994792;28;20034;-77
2022/09/11 05:26:15;;;;;;;3.55;1.40;;;14.60;81.90;;;;;;4994642;28;20030;-76
2022/09/11 05:28:41;;;;;;;2.80;1.00;;;14.60;82.20;;;;;;4994661;28;20022;-76
2022/09/11 05:31:17;;;;;;;1.73;0.90;;;14.70;82.40;;;;;;4994411;28;20041;-77
2022/09/11 05:33:44;;;;;;;3.15;0.90;;;14.70;82.50;;;;;;4994416;28;20030;-76
2022/09/11 05:36:11;;;;;;;3.50;1.25;;;14.70;82.50;;;;;;4993985;28;20473;-76
2022/09/11 05:38:37;;;;;;;0.95;0.63;;;14.70;82.80;;;;;;4994241;28;20161;-76
2022/09/11 05:41:07;;;;;;;3.45;1.05;;;14.70;83.00;;;;;;4994428;28;20537;-77
2022/09/11 05:43:34;;;;;;;3.05;1.33;;;14.80;84.10;;;;;;4994129;28;20022;-76
2022/09/11 05:46:00;;;;;;;3.33;1.60;;;14.80;83.90;;;;;;4994139;28;20120;-76
2022/09/11 05:48:30;;;;;;;3.58;1.30;;;14.80;83.70;;;;;;4994095;28;20390;-77
2022/09/11 05:51:00;;;;;;;3.15;1.33;;;14.90;83.60;;;;;;4993838;28;20364;-76
2022/09/11 05:53:33;;;;;;;3.17;1.52;;;14.80;83.50;;;;;;4994341;28;20022;-76
2022/09/11 05:56:20;;;;;;;6.78;3.00;;;14.80;83.80;;;;;;4993900;28;20034;-76
2022/09/11 05:58:47;;;;;;;10.38;5.43;;;14.90;83.90;;;;;;4993673;28;20030;-76
2022/09/11 06:01:16;;;;;;;32.95;16.27;;;14.90;83.70;;;;;;4993709;28;20076;-76
2022/09/11 06:03:42;;;;;;;41.78;21.20;;;14.90;83.50;;;;;;4994012;28;20385;-76
2022/09/11 06:06:11;;;;;;;46.60;22.48;;;15.00;83.40;;;;;;4977875;28;20037;-76
2022/09/11 06:08:38;;;;;;;38.35;18.70;;;15.10;83.10;;;;;;4993925;28;20050;-77
2022/09/11 06:11:06;;;;;;;31.33;16.00;;;15.10;83.00;;;;;;4993934;28;20672;-77
2022/09/11 06:13:38;;;;;;;16.08;7.88;;;15.10;82.90;;;;;;4993675;28;20026;-76
2022/09/11 06:16:06;;;;;;;15.13;5.47;;;15.10;83.30;;;;;;4993236;28;20205;-77
2022/09/11 06:18:32;;;;;;;8.02;3.38;;;15.00;83.40;;;;;;4993546;28;20066;-76
2022/09/11 06:20:59;;;;;;;7.30;1.90;;;14.90;84.20;;;;;;4993247;28;20061;-76
2022/09/11 06:23:26;;;;;;;6.45;1.50;;;14.90;84.50;;;;;;4993301;28;20351;-76
2022/09/11 06:25:55;;;;;;;5.72;1.30;;;14.80;84.50;;;;;;4993892;28;20038;-76
2022/09/11 06:28:22;;;;;;;2.58;1.50;;;14.80;84.90;;;;;;4995585;28;20057;-76
2022/09/11 06:30:49;;;;;;;4.10;1.27;;;14.80;84.90;;;;;;4993898;28;20505;-76
2022/09/11 06:33:14;;;;;;;3.75;1.10;;;14.80;84.90;;;;;;4992993;28;20030;-76
2022/09/11 06:35:40;;;;;;;2.78;1.08;;;14.80;85.00;;;;;;4993032;28;20041;-76
2022/09/11 06:38:05;;;;;;;2.95;1.10;;;14.80;85.10;;;;;;4992953;28;20380;-76
2022/09/11 06:40:31;;;;;;;5.15;1.30;;;14.90;85.30;;;;;;4976848;28;20030;-76
2022/09/11 06:42:57;;;;;;;3.13;1.70;;;14.80;85.30;;;;;;4992694;28;20506;-79
2022/09/11 06:45:23;;;;;;;6.65;2.95;;;14.80;85.40;;;;;;4976892;28;20066;-76
2022/09/11 06:47:49;;;;;;;8.18;3.10;;;14.80;86.10;;;;;;4992462;28;20522;-77
2022/09/11 06:50:14;;;;;;;4.35;2.50;;;14.70;86.10;;;;;;4992764;28;20034;-76
2022/09/11 06:52:41;;;;;;;5.20;2.30;;;14.70;86.20;;;;;;4992687;28;20026;-76
2022/09/11 06:55:12;;;;;;;4.60;2.35;;;14.70;86.40;;;;;;4992356;28;20129;-77
2022/09/11 06:57:43;;;;;;;5.10;2.20;;;14.80;86.50;;;;;;4993006;28;20494;-76
2022/09/11 07:00:09;;;;;;;5.43;1.95;;;14.80;86.50;;;;;;4992686;28;20405;-76
2022/09/11 07:02:35;;;;;;;4.35;1.52;;;14.90;86.30;;;;;;4992787;28;20485;-76
2022/09/11 07:05:01;;;;;;;3.97;1.65;;;14.90;86.10;;;;;;4992573;28;20042;-77
2022/09/11 07:07:26;;;;;;;2.35;1.38;;;14.90;86.00;;;;;;4992641;28;20030;-76
2022/09/11 07:09:55;;;;;;;3.30;1.35;;;15.00;85.90;;;;;;4992653;28;20026;-76
2022/09/11 07:12:22;;;;;;;2.10;1.15;;;15.00;85.70;;;;;;4992543;28;20073;-77
2022/09/11 07:14:48;;;;;;;1.70;1.30;;;15.00;85.70;;;;;;4992774;28;20069;-77
2022/09/11 07:17:14;;;;;;;2.22;1.40;;;15.00;85.80;;;;;;4992461;28;20038;-76
2022/09/11 07:19:39;;;;;;;4.68;0.98;;;15.10;85.90;;;;;;4992115;28;20478;-77
2022/09/11 07:22:05;;;;;;;3.10;1.42;;;15.10;85.70;;;;;;4992494;28;20367;-75
2022/09/11 07:24:31;;;;;;;2.22;1.30;;;15.10;85.60;;;;;;4992222;28;20359;-77
2022/09/11 07:26:57;;;;;;;4.43;1.52;;;15.20;85.50;;;;;;4992644;28;20121;-77
2022/09/11 07:29:23;;;;;;;4.47;1.83;;;15.20;85.60;;;;;;4992429;28;20379;-76
2022/09/11 07:31:49;;;;;;;8.10;2.40;;;15.20;85.80;;;;;;4992301;28;20113;-76
2022/09/11 07:34:14;;;;;;;15.55;2.25;;;15.30;86.10;;;;;;4992451;28;20026;-76
2022/09/11 07:36:40;;;;;;;8.45;2.25;;;15.40;86.10;;;;;;4992320;28;20046;-76
2022/09/11 07:39:06;;;;;;;2.45;1.40;;;15.50;85.70;;;;;;4992316;28;20414;-75
2022/09/11 07:41:31;;;;;;;1.67;1.58;;;15.60;84.70;;;;;;4992481;28;20029;-76
2022/09/11 07:43:59;;;;;;;3.25;1.60;;;15.70;84.40;;;;;;4992793;28;20122;-75
2022/09/11 07:46:26;;;;;;;5.63;1.67;;;15.90;83.50;;;;;;4992498;28;20118;-75
2022/09/11 07:48:54;;;;;;;3.10;1.65;;;16.00;82.70;;;;;;4993196;28;20022;-76
2022/09/11 07:51:20;;;;;;;4.68;2.72;;;16.20;81.80;;;;;;4993943;28;20030;-76
2022/09/11 07:53:50;;;;;;;4.78;2.42;;;16.20;81.30;;;;;;4992816;28;20035;-76
2022/09/11 07:56:24;;;;;;;4.43;2.08;;;16.40;81.60;;;;;;4992222;28;20092;-76
2022/09/11 07:58:51;;;;;;;5.53;2.07;;;16.40;80.30;;;;;;4992278;28;20018;-76
2022/09/11 08:01:19;;;;;;;2.72;1.60;;;16.50;79.80;;;;;;4994543;28;20027;-76
2022/09/11 08:03:46;;;;;;;5.82;2.92;;;16.60;80.20;;;;;;4996073;28;20022;-76
2022/09/11 08:06:14;;;;;;;4.95;2.15;;;16.60;80.60;;;;;;5001443;28;20023;-77
2022/09/11 08:08:42;;;;;;;4.82;1.95;;;16.60;79.40;;;;;;5008044;28;20025;-76
2022/09/11 08:11:10;;;;;;;2.60;1.92;;;16.70;79.30;;;;;;5015845;28;20034;-76
2022/09/11 08:13:37;;;;;;;3.63;2.13;;;16.70;79.40;;;;;;5012528;28;20537;-76
2022/09/11 08:16:03;;;;;;;4.13;1.88;;;16.70;79.00;;;;;;5009182;28;20060;-76
2022/09/11 08:18:29;;;;;;;8.55;2.55;;;16.60;78.40;;;;;;5015160;28;20033;-75
2022/09/11 08:21:07;;;;;;;4.50;3.00;;;16.60;78.70;;;;;;5015025;28;20462;-75
2022/09/11 08:23:33;;;;;;;8.23;4.75;;;16.40;80.90;;;;;;5014727;28;20034;-74
2022/09/11 08:26:10;;;;;;;10.57;6.05;;;16.20;79.80;;;;;;5015279;28;20038;-74
2022/09/11 08:28:38;;;;;;;12.73;7.72;;;16.10;81.00;;;;;;5015154;28;20033;-74
2022/09/11 08:31:05;;;;;;;12.40;8.02;;;15.90;80.90;;;;;;5014811;28;20048;-74
2022/09/11 08:33:32;;;;;;;11.55;7.32;;;15.90;80.80;;;;;;5016502;28;20379;-74
2022/09/11 08:35:59;;;;;;;7.82;5.22;;;16.00;81.50;;;;;;5014636;28;20041;-75
2022/09/11 08:38:24;;;;;;;12.65;6.00;;;15.90;81.60;;;;;;5015728;28;20038;-74
2022/09/11 08:40:50;;;;;;;10.80;5.88;;;15.90;82.80;;;;;;5014609;28;20032;-76
2022/09/11 08:43:26;;;;;;;8.60;5.03;;;15.90;81.80;;;;;;5014628;28;20026;-75
2022/09/11 08:45:57;;;;;;;10.15;4.55;;;16.00;83.60;;;;;;5014282;28;20073;-74
2022/09/11 08:48:31;;;;;;;6.15;3.28;;;16.20;82.10;;;;;;5014807;28;20025;-74
2022/09/11 08:50:57;;;;;;;2.90;1.85;;;16.30;82.00;;;;;;5015280;28;20484;-74
2022/09/11 08:53:24;;;;;;;2.17;1.83;;;16.30;80.90;;;;;;5015029;28;20030;-74
2022/09/11 08:55:59;;;;;;;4.35;2.42;;;16.30;80.70;;;;;;5014393;28;20033;-75
2022/09/11 08:58:41;;;;;;;3.08;1.80;;;16.20;81.10;;;;;;5015521;28;20034;-75
2022/09/11 09:01:28;;;;;;;4.05;1.65;;;16.20;83.50;;;;;;5014359;28;20033;-76
2022/09/11 09:04:17;;;;;;;3.15;1.75;;;16.40;80.90;;;;;;5014635;28;20034;-76
2022/09/11 09:07:01;;;;;;;3.70;1.60;;;16.60;80.20;;;;;;5013153;28;20133;-77
2022/09/11 09:09:39;;;;;;;3.53;2.05;;;17.00;77.90;;;;;;5014388;28;20022;-77
2022/09/11 09:12:37;;;;;;;2.70;1.50;;;17.20;76.50;;;;;;5013581;28;20036;-77
2022/09/11 09:15:15;;;;;;;2.92;1.40;;;17.50;76.50;;;;;;5014145;28;20034;-76
2022/09/11 09:18:04;;;;;;;2.13;1.02;;;17.20;77.70;;;;;;5014004;28;20494;-77
2022/09/11 09:20:38;;;;;;;5.47;1.42;;;17.40;76.60;;;;;;5014021;28;20034;-77
2022/09/11 09:23:22;;;;;;;2.03;1.20;;;17.50;76.80;;;;;;5014043;28;20498;-77
2022/09/11 09:25:51;;;;;;;2.45;0.88;;;17.60;74.90;;;;;;5015128;28;20033;-77
2022/09/11 09:28:39;;;;;;;4.07;1.13;;;17.60;74.10;;;;;;5013839;28;20381;-76
2022/09/11 09:31:09;;;;;;;5.68;1.38;;;17.60;73.80;;;;;;5013529;28;20494;-78
2022/09/11 09:34:01;;;;;;;2.05;1.20;;;17.70;74.40;;;;;;5013560;28;20367;-77
2022/09/11 09:36:38;;;;;;;3.03;1.40;;;17.30;76.50;;;;;;5030427;28;20044;-76
2022/09/11 09:39:14;;;;;;;1.20;1.10;;;17.10;77.50;;;;;;5013797;28;20030;-77
2022/09/11 09:42:09;;;;;;;0.77;0.73;;;17.30;78.00;;;;;;5013285;28;20079;-77
2022/09/11 09:45:00;;;;;;;2.20;1.05;;;17.60;74.70;;;;;;5013524;28;20026;-76
2022/09/11 09:47:26;;;;;;;0.88;0.68;;;17.90;73.00;;;;;;5013572;28;20068;-77
2022/09/11 09:49:52;;;;;;;1.08;0.80;;;18.00;72.20;;;;;;5013519;28;20033;-76
2022/09/11 09:52:24;;;;;;;1.20;1.10;;;18.20;72.10;;;;;;5013320;28;20480;-78
2022/09/11 09:55:00;;;;;;;3.17;1.30;;;18.50;70.80;;;;;;5012699;28;20478;-77
2022/09/11 09:57:38;;;;;;;0.65;0.65;;;18.90;71.10;;;;;;5012647;28;20034;-77
2022/09/11 10:00:06;;;;;;;0.85;0.85;;;19.30;68.00;;;;;;4996541;28;20490;-76
2022/09/11 10:02:47;;;;;;;2.38;1.23;;;19.00;69.00;;;;;;5012523;28;20037;-77
2022/09/11 10:05:25;;;;;;;2.00;1.30;;;19.00;68.30;;;;;;5013057;28;20022;-76
2022/09/11 10:07:56;;;;;;;4.22;1.20;;;19.00;66.70;;;;;;5012410;28;20505;-77
2022/09/11 10:10:31;;;;;;;2.50;1.00;;;19.10;69.90;;;;;;5013215;28;20462;-77
2022/09/11 10:13:07;;;;;;;1.48;1.00;;;19.20;68.40;;;;;;5013228;28;20104;-77
2022/09/11 10:15:38;;;;;;;1.10;1.00;;;19.00;68.10;;;;;;5012956;28;20486;-77
2022/09/11 10:18:41;;;;;;;4.40;1.33;;;19.10;68.10;;;;;;5013214;28;20136;-78
2022/09/11 10:21:29;;;;;;;2.15;0.95;;;19.30;64.60;;;;;;5012987;28;20029;-78
2022/09/11 10:24:16;;;;;;;2.67;1.10;;;19.60;65.50;;;;;;5011883;28;20040;-78
2022/09/11 10:26:44;;;;;;;2.15;1.10;;;19.60;61.90;;;;;;5013034;28;20025;-78
2022/09/11 10:29:24;;;;;;;1.38;1.10;;;19.70;63.30;;;;;;5013110;28;20026;-77
2022/09/11 10:31:54;;;;;;;1.30;1.20;;;19.80;64.10;;;;;;5012849;28;20028;-78
2022/09/11 10:34:22;;;;;;;4.97;1.20;;;19.50;63.70;;;;;;5014106;28;20053;-76
2022/09/11 10:36:55;;;;;;;2.50;1.13;;;19.40;65.90;;;;;;5012640;28;20121;-76
2022/09/11 10:39:22;;;;;;;1.45;1.10;;;19.10;67.50;;;;;;5012908;28;20493;-77
2022/09/11 10:41:50;;;;;;;2.67;1.13;;;18.80;69.20;;;;;;5012592;28;20470;-76
2022/09/11 10:44:16;;;;;;;4.18;1.50;;;18.80;67.40;;;;;;5012644;28;20080;-76
2022/09/11 10:46:45;;;;;;;1.10;1.00;;;18.90;67.20;;;;;;5012717;28;20046;-76
2022/09/11 10:49:18;;;;;;;1.63;1.10;;;19.20;68.80;;;;;;5012705;28;20132;-76
2022/09/11 10:52:21;;;;;;;1.75;1.05;;;19.70;65.90;;;;;;5012355;28;20120;-76
2022/09/11 10:55:05;;;;;;;2.70;1.13;;;20.10;63.40;;;;;;4937208;29;20027;-76
2022/09/11 10:57:51;;;;;;;1.23;1.00;;;20.00;62.50;;;;;;5006748;28;20042;-76
2022/09/11 11:00:29;;;;;;;1.00;1.00;;;19.90;62.70;;;;;;5012548;28;20018;-76
2022/09/11 11:03:26;;;;;;;2.03;1.05;;;20.00;63.10;;;;;;5012359;28;20026;-77
2022/09/11 11:06:10;;;;;;;1.10;1.00;;;20.10;63.80;;;;;;5009294;28;20045;-77
2022/09/11 11:09:04;;;;;;;2.45;1.05;;;20.00;63.70;;;;;;5012390;28;20026;-77
2022/09/11 11:11:36;;;;;;;5.43;3.78;;;20.00;64.00;;;;;;5012306;28;20126;-77
2022/09/11 11:14:22;;;;;;;2.38;0.73;;;20.50;61.10;;;;;;5012357;28;20026;-77
2022/09/11 11:17:03;;;;;;;1.60;1.00;;;21.00;57.70;;;;;;4994832;28;20052;-76
2022/09/11 11:19:50;;;;;;;3.15;1.00;;;21.10;55.20;;;;;;4994813;28;20022;-79
2022/09/11 11:23:03;;;;;;;1.80;0.70;;;21.50;56.30;;;;;;4995530;28;20032;-78
2022/09/11 11:25:54;;;;;;;1.58;0.82;;;22.00;55.80;;;;;;4995354;28;20043;-79
2022/09/11 11:28:35;;;;;;;4.43;0.95;;;22.20;55.40;;;;;;5011115;28;20037;-80
2022/09/11 11:31:50;;;;;;;1.20;1.10;;;22.50;55.60;;;;;;4995075;28;20065;-79
2022/09/11 11:34:30;;;;;;;2.00;0.80;;;23.00;54.20;;;;;;4974725;28;20049;-79
2022/09/11 11:37:22;;;;;;;1.52;1.05;;;23.50;52.00;;;;;;4998578;28;20069;-79
2022/09/11 11:39:56;;;;;;;1.00;0.90;;;24.00;49.90;;;;;;4998688;28;20046;-79
2022/09/11 11:42:27;;;;;;;1.87;1.10;;;23.90;47.60;;;;;;4998147;28;20045;-79
2022/09/11 11:45:15;;;;;;;2.45;0.90;;;23.70;47.50;;;;;;4997911;28;20380;-79
2022/09/11 11:47:46;;;;;;;3.03;0.98;;;23.50;48.30;;;;;;5004660;28;20034;-79
2022/09/11 11:50:26;;;;;;;3.55;0.80;;;23.50;48.50;;;;;;4999369;28;20041;-79
2022/09/11 11:53:01;;;;;;;3.60;0.90;;;23.40;49.50;;;;;;5017061;28;20441;-79
2022/09/11 11:55:43;;;;;;;1.10;1.00;;;23.50;48.70;;;;;;5015866;28;20026;-80
2022/09/11 11:58:21;;;;;;;1.70;0.88;;;23.70;47.30;;;;;;5016285;28;20120;-78
2022/09/11 12:00:55;;;;;;;1.00;0.70;;;23.60;46.70;;;;;;5015622;28;20113;-78
2022/09/11 12:03:31;;;;;;;2.73;1.10;;;23.10;45.80;;;;;;5015741;28;20022;-79
2022/09/11 12:05:57;;;;;;;1.33;0.90;;;22.60;47.60;;;;;;5015539;28;20021;-78
2022/09/11 12:08:23;;;;;;;1.08;0.98;;;22.30;49.80;;;;;;5015858;28;20022;-79
2022/09/11 12:11:01;;;;;;;1.35;0.90;;;22.00;50.10;;;;;;5015378;28;20113;-79
2022/09/11 12:13:34;;;;;;;1.95;1.08;;;21.90;51.10;;;;;;5012131;28;20548;-78
2022/09/11 12:16:23;;;;;;;2.53;1.25;;;21.80;50.50;;;;;;5015640;28;20076;-80
2022/09/11 12:19:12;;;;;;;1.08;0.98;;;21.80;51.10;;;;;;5015768;28;20026;-78
2022/09/11 12:22:05;;;;;;;1.73;1.25;;;21.70;51.00;;;;;;5015484;28;20493;-80
2022/09/11 12:24:51;;;;;;;0.95;0.95;;;21.60;51.90;;;;;;5015251;28;20117;-78
2022/09/11 12:27:33;;;;;;;2.05;1.10;;;21.50;51.80;;;;;;5014567;28;20034;-79
2022/09/11 12:30:24;;;;;;;0.70;0.70;;;21.50;51.60;;;;;;5014976;28;20033;-77
2022/09/11 12:32:59;;;;;;;0.88;0.88;;;21.50;50.70;;;;;;5032000;28;20375;-78
2022/09/11 12:35:30;;;;;;;0.88;0.88;;;22.10;50.00;;;;;;5015319;28;20527;-79
2022/09/11 12:38:14;;;;;;;1.30;0.80;;;22.70;48.80;;;;;;5014999;28;20045;-79
2022/09/11 12:41:00;;;;;;;0.85;0.77;;;22.80;46.50;;;;;;5015132;28;20033;-79
2022/09/11 12:43:45;;;;;;;0.70;0.70;;;22.90;46.40;;;;;;5014972;28;20034;-78
2022/09/11 12:46:20;;;;;;;1.65;0.93;;;22.90;46.40;;;;;;5013916;28;20095;-77
2022/09/11 12:48:47;;;;;;;1.52;0.73;;;23.10;46.10;;;;;;5014706;28;20033;-77
2022/09/11 12:51:24;;;;;;;1.25;0.73;;;23.60;44.90;;;;;;5014409;28;20026;-77
2022/09/11 12:53:55;;;;;;;1.20;0.80;;;24.30;42.10;;;;;;5014405;28;20077;-76
2022/09/11 12:56:24;;;;;;;1.75;1.20;;;24.50;40.70;;;;;;4998424;28;20052;-76
2022/09/11 12:59:08;;;;;;;1.38;0.90;;;24.60;40.90;;;;;;5014650;28;20022;-76
2022/09/11 13:01:44;;;;;;;1.73;1.10;;;24.60;40.50;;;;;;5014500;28;20026;-77
2022/09/11 13:04:10;;;;;;;2.90;0.90;;;24.70;41.00;;;;;;5014696;28;20072;-77
2022/09/11 13:06:41;;;;;;;2.15;1.10;;;24.00;42.40;;;;;;5013920;28;20109;-77
2022/09/11 13:09:27;;;;;;;1.20;1.10;;;23.60;43.50;;;;;;5013935;28;20053;-78
2022/09/11 13:11:56;;;;;;;0.80;0.80;;;23.50;44.00;;;;;;5014496;28;20053;-78
2022/09/11 13:14:47;;;;;;;1.17;0.80;;;23.90;43.80;;;;;;5014236;28;20033;-78